sensor_id;sensor_type;location;lat;lon;timestamp;pressure;altitude;pressure_sealevel;temperature;humidity
6096;BME280;25081;42.698;23.298;2023-05-02T00:01:22;95562.41;;;12.45;67.66
6096;BME280;25081;42.698;23.298;2023-05-02T00:03:32;95571.38;;;12.42;67.88
6096;BME280;25081;42.698;23.298;2023-05-02T00:05:43;95571.08;;;12.41;67.94
6096;BME280;25081;42.698;23.298;2023-05-02T00:07:54;95567.88;;;12.41;68.01
6096;BME280;25081;42.698;23.298;2023-05-02T00:10:09;95561.12;;;12.39;68.05
6096;BME280;25081;42.698;23.298;2023-05-02T00:12:20;95567.42;;;12.35;68.29
6096;BME280;25081;42.698;23.298;2023-05-02T00:14:30;95569.44;;;12.30;68.48
6096;BME280;25081;42.698;23.298;2023-05-02T00:16:41;95564.25;;;12.36;68.41
6096;BME280;25081;42.698;23.298;2023-05-02T00:18:51;95567.52;;;12.38;68.38
6096;BME280;25081;42.698;23.298;2023-05-02T00:21:02;95568.09;;;12.30;68.55
6096;BME280;25081;42.698;23.298;2023-05-02T00:23:13;95561.41;;;12.30;68.56
6096;BME280;25081;42.698;23.298;2023-05-02T00:25:23;95569.73;;;12.31;68.64
6096;BME280;25081;42.698;23.298;2023-05-02T00:27:34;95563.56;;;12.31;68.71
6096;BME280;25081;42.698;23.298;2023-05-02T00:29:44;95568.39;;;12.31;68.59
6096;BME280;25081;42.698;23.298;2023-05-02T00:31:56;95569.14;;;12.29;68.77
6096;BME280;25081;42.698;23.298;2023-05-02T00:34:07;95574.48;;;12.29;68.74
6096;BME280;25081;42.698;23.298;2023-05-02T00:36:18;95569.14;;;12.29;68.66
6096;BME280;25081;42.698;23.298;2023-05-02T00:38:28;95576.57;;;12.27;68.84
6096;BME280;25081;42.698;23.298;2023-05-02T00:40:45;95577.91;;;12.27;68.82
6096;BME280;25081;42.698;23.298;2023-05-02T00:42:55;95589.02;;;12.24;68.97
6096;BME280;25081;42.698;23.298;2023-05-02T00:45:08;95586.27;;;12.22;69.19
6096;BME280;25081;42.698;23.298;2023-05-02T00:47:18;95599.41;;;12.23;69.23
6096;BME280;25081;42.698;23.298;2023-05-02T00:49:29;95594.89;;;12.24;69.29
6096;BME280;25081;42.698;23.298;2023-05-02T00:51:40;95596.17;;;12.30;69.04
6096;BME280;25081;42.698;23.298;2023-05-02T00:53:50;95595.28;;;12.27;69.19
6096;BME280;25081;42.698;23.298;2023-05-02T00:56:01;95605.45;;;12.28;69.19
6096;BME280;25081;42.698;23.298;2023-05-02T00:58:12;95602.11;;;12.32;69.04
6096;BME280;25081;42.698;23.298;2023-05-02T01:00:23;95600.11;;;12.28;69.32
6096;BME280;25081;42.698;23.298;2023-05-02T01:02:37;95605.30;;;12.32;69.30
6096;BME280;25081;42.698;23.298;2023-05-02T01:04:47;95596.17;;;12.30;69.45
6096;BME280;25081;42.698;23.298;2023-05-02T01:07:01;95596.46;;;12.31;69.44
6096;BME280;25081;42.698;23.298;2023-05-02T01:09:24;95594.98;;;12.26;69.70
6096;BME280;25081;42.698;23.298;2023-05-02T01:11:30;95593.13;;;12.27;69.76
6096;BME280;25081;42.698;23.298;2023-05-02T01:13:38;95594.47;;;12.27;69.84
6096;BME280;25081;42.698;23.298;2023-05-02T01:15:50;95602.24;;;12.19;70.16
6096;BME280;25081;42.698;23.298;2023-05-02T01:18:00;95599.09;;;12.13;70.48
6096;BME280;25081;42.698;23.298;2023-05-02T01:20:12;95592.64;;;12.12;70.66
6096;BME280;25081;42.698;23.298;2023-05-02T01:22:22;95590.19;;;12.10;70.85
6096;BME280;25081;42.698;23.298;2023-05-02T01:24:36;95591.16;;;12.07;71.04
6096;BME280;25081;42.698;23.298;2023-05-02T01:26:49;95588.49;;;12.07;71.12
6096;BME280;25081;42.698;23.298;2023-05-02T01:29:00;95576.47;;;12.07;71.15
6096;BME280;25081;42.698;23.298;2023-05-02T01:31:10;95580.08;;;12.03;71.42
6096;BME280;25081;42.698;23.298;2023-05-02T01:33:21;95572.80;;;12.01;71.54
6096;BME280;25081;42.698;23.298;2023-05-02T01:35:34;95575.77;;;12.02;71.52
6096;BME280;25081;42.698;23.298;2023-05-02T01:37:45;95575.45;;;11.92;72.00
6096;BME280;25081;42.698;23.298;2023-05-02T01:39:55;95573.94;;;11.87;72.31
6096;BME280;25081;42.698;23.298;2023-05-02T01:42:06;95581.13;;;11.86;72.42
6096;BME280;25081;42.698;23.298;2023-05-02T01:44:16;95587.37;;;11.80;72.69
6096;BME280;25081;42.698;23.298;2023-05-02T01:46:29;95583.88;;;11.80;72.89
6096;BME280;25081;42.698;23.298;2023-05-02T01:48:38;95584.63;;;11.71;73.15
6096;BME280;25081;42.698;23.298;2023-05-02T01:50:48;95587.83;;;11.70;73.19
6096;BME280;25081;42.698;23.298;2023-05-02T01:52:59;95585.08;;;11.68;73.36
6096;BME280;25081;42.698;23.298;2023-05-02T01:55:11;95591.42;;;11.67;73.44
6096;BME280;25081;42.698;23.298;2023-05-02T01:57:21;95596.88;;;11.69;73.39
6096;BME280;25081;42.698;23.298;2023-05-02T01:59:32;95587.13;;;11.66;73.60
6096;BME280;25081;42.698;23.298;2023-05-02T02:01:42;95584.16;;;11.65;73.70
6096;BME280;25081;42.698;23.298;2023-05-02T02:03:53;95584.67;;;11.64;73.76
6096;BME280;25081;42.698;23.298;2023-05-02T02:06:04;95580.30;;;11.61;74.04
6096;BME280;25081;42.698;23.298;2023-05-02T02:08:15;95585.86;;;11.59;74.08
6096;BME280;25081;42.698;23.298;2023-05-02T02:10:26;95578.18;;;11.54;74.17
6096;BME280;25081;42.698;23.298;2023-05-02T02:12:37;95582.78;;;11.56;74.26
6096;BME280;25081;42.698;23.298;2023-05-02T02:14:48;95587.09;;;11.57;74.24
6096;BME280;25081;42.698;23.298;2023-05-02T02:16:58;95578.03;;;11.49;74.50
6096;BME280;25081;42.698;23.298;2023-05-02T02:19:09;95585.11;;;11.45;74.87
6096;BME280;25081;42.698;23.298;2023-05-02T02:21:19;95582.73;;;11.46;74.79
6096;BME280;25081;42.698;23.298;2023-05-02T02:23:30;95576.95;;;11.40;74.97
6096;BME280;25081;42.698;23.298;2023-05-02T02:25:40;95578.80;;;11.40;75.04
6096;BME280;25081;42.698;23.298;2023-05-02T02:27:51;95582.18;;;11.38;75.09
6096;BME280;25081;42.698;23.298;2023-05-02T02:30:01;95587.33;;;11.39;75.04
6096;BME280;25081;42.698;23.298;2023-05-02T02:32:13;95585.36;;;11.37;75.02
6096;BME280;25081;42.698;23.298;2023-05-02T02:34:23;95581.80;;;11.34;75.21
6096;BME280;25081;42.698;23.298;2023-05-02T02:36:35;95585.28;;;11.35;75.21
6096;BME280;25081;42.698;23.298;2023-05-02T02:38:46;95583.06;;;11.32;75.36
6096;BME280;25081;42.698;23.298;2023-05-02T02:40:58;95583.09;;;11.25;75.61
6096;BME280;25081;42.698;23.298;2023-05-02T02:43:09;95583.91;;;11.26;75.59
6096;BME280;25081;42.698;23.298;2023-05-02T02:45:24;95585.98;;;11.24;75.72
6096;BME280;25081;42.698;23.298;2023-05-02T02:47:35;95585.67;;;11.23;75.70
6096;BME280;25081;42.698;23.298;2023-05-02T02:49:48;95593.98;;;11.24;75.60
6096;BME280;25081;42.698;23.298;2023-05-02T02:52:01;95582.19;;;11.22;75.62
6096;BME280;25081;42.698;23.298;2023-05-02T02:54:12;95589.48;;;11.17;75.80
6096;BME280;25081;42.698;23.298;2023-05-02T02:56:25;95594.30;;;11.18;75.74
6096;BME280;25081;42.698;23.298;2023-05-02T02:58:40;95596.79;;;11.20;75.63
6096;BME280;25081;42.698;23.298;2023-05-02T03:00:49;95602.51;;;11.23;75.44
6096;BME280;25081;42.698;23.298;2023-05-02T03:03:00;95603.95;;;11.19;75.56
6096;BME280;25081;42.698;23.298;2023-05-02T03:05:10;95596.57;;;11.21;75.53
6096;BME280;25081;42.698;23.298;2023-05-02T03:07:21;95608.66;;;11.24;75.41
6096;BME280;25081;42.698;23.298;2023-05-02T03:09:41;95607.66;;;11.18;75.61
6096;BME280;25081;42.698;23.298;2023-05-02T03:11:52;95614.45;;;11.14;75.79
6096;BME280;25081;42.698;23.298;2023-05-02T03:14:02;95612.11;;;11.08;76.06
6096;BME280;25081;42.698;23.298;2023-05-02T03:16:33;95631.52;;;11.06;76.19
6096;BME280;25081;42.698;23.298;2023-05-02T03:18:43;95624.55;;;11.05;76.24
6096;BME280;25081;42.698;23.298;2023-05-02T03:20:54;95622.62;;;11.03;76.48
6096;BME280;25081;42.698;23.298;2023-05-02T03:23:04;95628.88;;;11.00;76.63
6096;BME280;25081;42.698;23.298;2023-05-02T03:25:15;95624.34;;;11.07;76.46
6096;BME280;25081;42.698;23.298;2023-05-02T03:27:26;95625.16;;;11.07;76.21
6096;BME280;25081;42.698;23.298;2023-05-02T03:29:36;95622.59;;;11.10;76.12
6096;BME280;25081;42.698;23.298;2023-05-02T03:31:47;95622.47;;;11.14;75.89
6096;BME280;25081;42.698;23.298;2023-05-02T03:33:58;95620.31;;;11.13;75.92
6096;BME280;25081;42.698;23.298;2023-05-02T03:36:08;95635.48;;;11.20;75.48
6096;BME280;25081;42.698;23.298;2023-05-02T03:38:19;95618.30;;;11.25;75.18
6096;BME280;25081;42.698;23.298;2023-05-02T03:40:30;95623.72;;;11.27;74.88
6096;BME280;25081;42.698;23.298;2023-05-02T03:42:40;95621.11;;;11.21;75.09
6096;BME280;25081;42.698;23.298;2023-05-02T03:44:53;95628.45;;;11.25;74.84
6096;BME280;25081;42.698;23.298;2023-05-02T03:47:04;95622.30;;;11.25;74.86
6096;BME280;25081;42.698;23.298;2023-05-02T03:49:14;95641.07;;;11.27;74.66
6096;BME280;25081;42.698;23.298;2023-05-02T03:51:25;95628.45;;;11.25;74.77
6096;BME280;25081;42.698;23.298;2023-05-02T03:53:36;95635.05;;;11.23;74.89
6096;BME280;25081;42.698;23.298;2023-05-02T03:55:46;95636.60;;;11.21;75.09
6096;BME280;25081;42.698;23.298;2023-05-02T03:57:57;95640.61;;;11.21;75.14
6096;BME280;25081;42.698;23.298;2023-05-02T04:00:09;95633.30;;;11.19;75.21
6096;BME280;25081;42.698;23.298;2023-05-02T04:02:20;95640.69;;;11.24;75.01
6096;BME280;25081;42.698;23.298;2023-05-02T04:04:32;95636.17;;;11.24;75.18
6096;BME280;25081;42.698;23.298;2023-05-02T04:06:42;95634.51;;;11.30;75.02
6096;BME280;25081;42.698;23.298;2023-05-02T04:08:53;95632.77;;;11.26;74.98
6096;BME280;25081;42.698;23.298;2023-05-02T04:11:04;95634.70;;;11.28;74.83
6096;BME280;25081;42.698;23.298;2023-05-02T04:13:14;95647.52;;;11.29;75.00
6096;BME280;25081;42.698;23.298;2023-05-02T04:15:25;95643.41;;;11.33;74.82
6096;BME280;25081;42.698;23.298;2023-05-02T04:17:35;95641.80;;;11.25;74.82
6096;BME280;25081;42.698;23.298;2023-05-02T04:19:46;95640.17;;;11.24;74.91
6096;BME280;25081;42.698;23.298;2023-05-02T04:21:57;95642.08;;;11.33;74.66
6096;BME280;25081;42.698;23.298;2023-05-02T04:24:08;95636.66;;;11.30;74.70
6096;BME280;25081;42.698;23.298;2023-05-02T04:26:18;95639.63;;;11.31;74.53
6096;BME280;25081;42.698;23.298;2023-05-02T04:28:29;95640.20;;;11.40;74.07
6096;BME280;25081;42.698;23.298;2023-05-02T04:30:39;95641.31;;;11.41;74.24
6096;BME280;25081;42.698;23.298;2023-05-02T04:32:50;95645.72;;;11.61;73.50
6096;BME280;25081;42.698;23.298;2023-05-02T04:35:00;95643.98;;;11.73;72.79
6096;BME280;25081;42.698;23.298;2023-05-02T04:37:10;95646.66;;;11.80;72.31
6096;BME280;25081;42.698;23.298;2023-05-02T04:39:21;95642.86;;;11.56;72.79
6096;BME280;25081;42.698;23.298;2023-05-02T04:41:32;95641.45;;;11.53;72.71
6096;BME280;25081;42.698;23.298;2023-05-02T04:43:42;95647.73;;;11.65;72.38
6096;BME280;25081;42.698;23.298;2023-05-02T04:45:53;95650.63;;;11.64;71.94
6096;BME280;25081;42.698;23.298;2023-05-02T04:48:05;95649.00;;;11.79;71.67
6096;BME280;25081;42.698;23.298;2023-05-02T04:50:15;95636.75;;;11.96;71.15
6096;BME280;25081;42.698;23.298;2023-05-02T04:52:27;95645.52;;;11.94;70.71
6096;BME280;25081;42.698;23.298;2023-05-02T04:54:37;95643.50;;;11.89;70.37
6096;BME280;25081;42.698;23.298;2023-05-02T04:56:48;95645.23;;;12.18;69.71
6096;BME280;25081;42.698;23.298;2023-05-02T04:58:58;95649.84;;;13.09;65.92
6096;BME280;25081;42.698;23.298;2023-05-02T05:01:09;95653.05;;;13.36;64.84
6096;BME280;25081;42.698;23.298;2023-05-02T05:03:19;95655.44;;;13.35;64.00
6096;BME280;25081;42.698;23.298;2023-05-02T05:05:30;95646.70;;;13.49;63.68
6096;BME280;25081;42.698;23.298;2023-05-02T05:07:40;95653.23;;;13.62;63.15
6096;BME280;25081;42.698;23.298;2023-05-02T05:09:51;95650.84;;;13.63;62.51
6096;BME280;25081;42.698;23.298;2023-05-02T05:12:02;95644.94;;;13.42;63.17
6096;BME280;25081;42.698;23.298;2023-05-02T05:14:12;95635.56;;;14.05;61.80
6096;BME280;25081;42.698;23.298;2023-05-02T05:16:23;95638.44;;;13.80;61.98
6096;BME280;25081;42.698;23.298;2023-05-02T05:18:34;95641.34;;;13.69;62.41
6096;BME280;25081;42.698;23.298;2023-05-02T05:20:45;95649.35;;;13.58;62.21
6096;BME280;25081;42.698;23.298;2023-05-02T05:22:55;95643.45;;;13.67;61.72
6096;BME280;25081;42.698;23.298;2023-05-02T05:25:08;95645.47;;;13.42;62.42
6096;BME280;25081;42.698;23.298;2023-05-02T05:27:19;95644.77;;;13.46;62.71
6096;BME280;25081;42.698;23.298;2023-05-02T05:29:31;95651.91;;;14.59;58.20
6096;BME280;25081;42.698;23.298;2023-05-02T05:31:42;95649.21;;;13.62;61.23
6096;BME280;25081;42.698;23.298;2023-05-02T05:33:52;95646.12;;;13.88;60.31
6096;BME280;25081;42.698;23.298;2023-05-02T05:36:07;95654.25;;;14.23;58.93
6096;BME280;25081;42.698;23.298;2023-05-02T05:38:18;95654.63;;;14.18;59.19
6096;BME280;25081;42.698;23.298;2023-05-02T05:40:28;95657.75;;;13.91;59.60
6096;BME280;25081;42.698;23.298;2023-05-02T05:42:38;95650.93;;;14.19;59.16
6096;BME280;25081;42.698;23.298;2023-05-02T05:44:49;95658.73;;;14.20;58.78
6096;BME280;25081;42.698;23.298;2023-05-02T05:46:59;95655.74;;;14.75;57.09
6096;BME280;25081;42.698;23.298;2023-05-02T05:49:10;95657.69;;;14.21;58.48
6096;BME280;25081;42.698;23.298;2023-05-02T05:51:21;95662.70;;;15.52;54.82
6096;BME280;25081;42.698;23.298;2023-05-02T05:53:31;95656.20;;;15.22;55.78
6096;BME280;25081;42.698;23.298;2023-05-02T05:55:42;95629.55;;;16.03;52.93
6096;BME280;25081;42.698;23.298;2023-05-02T05:57:52;95656.86;;;16.45;51.79
6096;BME280;25081;42.698;23.298;2023-05-02T06:00:04;95651.80;;;16.15;53.28
6096;BME280;25081;42.698;23.298;2023-05-02T06:02:15;95663.50;;;16.57;51.91
6096;BME280;25081;42.698;23.298;2023-05-02T06:04:25;95666.66;;;15.21;54.79
6096;BME280;25081;42.698;23.298;2023-05-02T06:06:36;95670.50;;;14.75;56.11
6096;BME280;25081;42.698;23.298;2023-05-02T06:08:47;95672.07;;;14.85;56.16
6096;BME280;25081;42.698;23.298;2023-05-02T06:10:58;95673.03;;;14.68;56.49
6096;BME280;25081;42.698;23.298;2023-05-02T06:13:08;95678.39;;;15.43;54.50
6096;BME280;25081;42.698;23.298;2023-05-02T06:15:19;95672.73;;;15.42;54.37
6096;BME280;25081;42.698;23.298;2023-05-02T06:17:29;95662.41;;;16.89;51.07
6096;BME280;25081;42.698;23.298;2023-05-02T06:19:40;95666.47;;;17.11;49.46
6096;BME280;25081;42.698;23.298;2023-05-02T06:21:50;95672.56;;;16.34;51.35
6096;BME280;25081;42.698;23.298;2023-05-02T06:24:01;95665.81;;;15.72;52.58
6096;BME280;25081;42.698;23.298;2023-05-02T06:26:11;95664.91;;;15.40;53.57
6096;BME280;25081;42.698;23.298;2023-05-02T06:28:22;95661.41;;;15.14;54.38
6096;BME280;25081;42.698;23.298;2023-05-02T06:30:33;95656.72;;;15.73;53.81
6096;BME280;25081;42.698;23.298;2023-05-02T06:32:44;95660.84;;;15.64;53.13
6096;BME280;25081;42.698;23.298;2023-05-02T06:34:54;95667.06;;;15.95;52.33
6096;BME280;25081;42.698;23.298;2023-05-02T06:37:05;95664.97;;;16.14;52.04
6096;BME280;25081;42.698;23.298;2023-05-02T06:39:15;95654.30;;;16.53;51.24
6096;BME280;25081;42.698;23.298;2023-05-02T06:41:26;95668.83;;;17.07;49.73
6096;BME280;25081;42.698;23.298;2023-05-02T06:43:37;95662.69;;;17.09;49.51
6096;BME280;25081;42.698;23.298;2023-05-02T06:45:47;95654.99;;;17.18;48.87
6096;BME280;25081;42.698;23.298;2023-05-02T06:47:58;95640.91;;;18.73;46.02
6096;BME280;25081;42.698;23.298;2023-05-02T06:50:10;95653.25;;;18.02;45.92
6096;BME280;25081;42.698;23.298;2023-05-02T06:52:21;95660.39;;;16.99;48.28
6096;BME280;25081;42.698;23.298;2023-05-02T06:54:32;95660.39;;;16.99;48.28
6096;BME280;25081;42.698;23.298;2023-05-02T06:56:42;95650.29;;;16.39;49.49
6096;BME280;25081;42.698;23.298;2023-05-02T06:58:53;95652.50;;;16.25;50.06
6096;BME280;25081;42.698;23.298;2023-05-02T07:01:03;95659.93;;;16.51;49.33
6096;BME280;25081;42.698;23.298;2023-05-02T07:03:14;95642.59;;;19.36;43.17
6096;BME280;25081;42.698;23.298;2023-05-02T07:05:25;95642.59;;;19.36;43.17
6096;BME280;25081;42.698;23.298;2023-05-02T07:07:35;95657.81;;;17.74;46.45
6096;BME280;25081;42.698;23.298;2023-05-02T07:09:46;95650.72;;;17.22;47.49
6096;BME280;25081;42.698;23.298;2023-05-02T07:11:57;95645.09;;;17.26;46.23
6096;BME280;25081;42.698;23.298;2023-05-02T07:14:07;95645.09;;;17.26;46.23
6096;BME280;25081;42.698;23.298;2023-05-02T07:16:18;95659.28;;;17.63;45.85
6096;BME280;25081;42.698;23.298;2023-05-02T07:18:28;95657.17;;;18.48;44.44
6096;BME280;25081;42.698;23.298;2023-05-02T07:20:39;95657.17;;;18.48;44.44
6096;BME280;25081;42.698;23.298;2023-05-02T07:22:49;95649.39;;;19.44;41.50
6096;BME280;25081;42.698;23.298;2023-05-02T07:25:01;95660.22;;;19.49;40.45
6096;BME280;25081;42.698;23.298;2023-05-02T07:27:11;95678.16;;;17.63;44.64
6096;BME280;25081;42.698;23.298;2023-05-02T07:29:21;95662.58;;;17.89;44.45
6096;BME280;25081;42.698;23.298;2023-05-02T07:31:32;95657.13;;;17.38;45.56
6096;BME280;25081;42.698;23.298;2023-05-02T07:33:43;95657.13;;;17.38;45.56
6096;BME280;25081;42.698;23.298;2023-05-02T07:35:53;95654.00;;;18.59;42.35
6096;BME280;25081;42.698;23.298;2023-05-02T07:38:04;95650.45;;;18.21;43.20
6096;BME280;25081;42.698;23.298;2023-05-02T07:40:16;95658.08;;;18.27;43.28
6096;BME280;25081;42.698;23.298;2023-05-02T07:42:29;95668.62;;;17.31;45.03
6096;BME280;25081;42.698;23.298;2023-05-02T07:44:40;95666.16;;;18.59;42.76
6096;BME280;25081;42.698;23.298;2023-05-02T07:46:50;95666.16;;;18.59;42.76
6096;BME280;25081;42.698;23.298;2023-05-02T07:49:01;95652.00;;;19.96;39.34
6096;BME280;25081;42.698;23.298;2023-05-02T07:51:12;95665.02;;;20.02;38.72
6096;BME280;25081;42.698;23.298;2023-05-02T07:53:22;95666.67;;;18.53;42.30
6096;BME280;25081;42.698;23.298;2023-05-02T07:55:33;95658.13;;;19.59;40.16
6096;BME280;25081;42.698;23.298;2023-05-02T07:57:43;95662.64;;;19.40;39.89
6096;BME280;25081;42.698;23.298;2023-05-02T07:59:54;95654.45;;;19.93;39.66
6096;BME280;25081;42.698;23.298;2023-05-02T08:04:33;95667.80;;;20.45;38.09
6096;BME280;25081;42.698;23.298;2023-05-02T08:06:45;95663.38;;;19.28;40.57
6096;BME280;25081;42.698;23.298;2023-05-02T08:08:56;95654.88;;;19.57;39.03
6096;BME280;25081;42.698;23.298;2023-05-02T08:11:06;95653.16;;;20.39;38.01
6096;BME280;25081;42.698;23.298;2023-05-02T08:13:17;95646.12;;;20.27;38.07
6096;BME280;25081;42.698;23.298;2023-05-02T08:15:27;95661.03;;;19.47;39.28
6096;BME280;25081;42.698;23.298;2023-05-02T08:17:38;95648.31;;;19.42;39.99
6096;BME280;25081;42.698;23.298;2023-05-02T08:19:48;95664.92;;;18.72;40.58
6096;BME280;25081;42.698;23.298;2023-05-02T08:21:59;95648.23;;;19.27;39.53
6096;BME280;25081;42.698;23.298;2023-05-02T08:24:10;95648.44;;;19.76;38.72
6096;BME280;25081;42.698;23.298;2023-05-02T08:26:20;95652.63;;;21.75;36.18
6096;BME280;25081;42.698;23.298;2023-05-02T08:28:31;95644.94;;;21.30;35.81
6096;BME280;25081;42.698;23.298;2023-05-02T08:30:42;95631.22;;;22.89;32.81
6096;BME280;25081;42.698;23.298;2023-05-02T08:32:52;95647.70;;;22.32;33.85
6096;BME280;25081;42.698;23.298;2023-05-02T08:35:03;95649.20;;;22.06;33.55
6096;BME280;25081;42.698;23.298;2023-05-02T08:37:14;95646.07;;;20.05;37.07
6096;BME280;25081;42.698;23.298;2023-05-02T08:39:24;95643.44;;;20.48;36.76
6096;BME280;25081;42.698;23.298;2023-05-02T08:41:35;95648.44;;;19.70;37.65
6096;BME280;25081;42.698;23.298;2023-05-02T08:43:46;95652.60;;;18.83;39.39
6096;BME280;25081;42.698;23.298;2023-05-02T08:45:56;95645.02;;;20.23;37.37
6096;BME280;25081;42.698;23.298;2023-05-02T08:48:09;95638.30;;;20.56;35.91
6096;BME280;25081;42.698;23.298;2023-05-02T08:50:19;95645.84;;;19.36;38.29
6096;BME280;25081;42.698;23.298;2023-05-02T08:52:29;95648.81;;;20.33;36.99
6096;BME280;25081;42.698;23.298;2023-05-02T08:54:40;95637.11;;;21.81;34.42
6096;BME280;25081;42.698;23.298;2023-05-02T08:56:50;95648.80;;;22.31;33.39
6096;BME280;25081;42.698;23.298;2023-05-02T08:59:01;95633.73;;;22.04;34.02
6096;BME280;25081;42.698;23.298;2023-05-02T09:01:12;95641.64;;;22.42;33.43
6096;BME280;25081;42.698;23.298;2023-05-02T09:03:29;95628.57;;;22.78;32.78
6096;BME280;25081;42.698;23.298;2023-05-02T09:05:37;95635.57;;;21.67;34.16
6096;BME280;25081;42.698;23.298;2023-05-02T09:07:46;95635.28;;;20.78;35.22
6096;BME280;25081;42.698;23.298;2023-05-02T09:09:56;95631.34;;;21.40;34.53
6096;BME280;25081;42.698;23.298;2023-05-02T09:12:07;95632.09;;;22.76;32.73
6096;BME280;25081;42.698;23.298;2023-05-02T09:14:17;95623.94;;;23.32;32.26
6096;BME280;25081;42.698;23.298;2023-05-02T09:16:28;95630.26;;;21.44;33.75
6096;BME280;25081;42.698;23.298;2023-05-02T09:18:39;95625.63;;;21.96;33.53
6096;BME280;25081;42.698;23.298;2023-05-02T09:20:49;95636.07;;;20.13;35.86
6096;BME280;25081;42.698;23.298;2023-05-02T09:22:59;95631.64;;;19.66;36.88
6096;BME280;25081;42.698;23.298;2023-05-02T09:25:11;95623.03;;;19.84;36.77
6096;BME280;25081;42.698;23.298;2023-05-02T09:27:21;95635.99;;;18.65;39.39
6096;BME280;25081;42.698;23.298;2023-05-02T09:29:32;95631.04;;;18.56;38.85
6096;BME280;25081;42.698;23.298;2023-05-02T09:31:45;95631.04;;;18.56;38.85
6096;BME280;25081;42.698;23.298;2023-05-02T09:33:55;95636.76;;;18.28;40.12
6096;BME280;25081;42.698;23.298;2023-05-02T09:36:06;95631.11;;;18.76;39.64
6096;BME280;25081;42.698;23.298;2023-05-02T09:38:18;95631.11;;;18.00;39.64
6096;BME280;25081;42.698;23.298;2023-05-02T09:40:29;95632.36;;;17.90;40.24
6096;BME280;25081;42.698;23.298;2023-05-02T09:42:40;95617.86;;;19.07;39.09
6096;BME280;25081;42.698;23.298;2023-05-02T09:44:50;95626.09;;;19.30;37.85
6096;BME280;25081;42.698;23.298;2023-05-02T09:47:01;95614.03;;;19.01;38.35
6096;BME280;25081;42.698;23.298;2023-05-02T09:49:11;95610.88;;;19.19;37.70
6096;BME280;25081;42.698;23.298;2023-05-02T09:51:22;95613.59;;;18.69;38.35
6096;BME280;25081;42.698;23.298;2023-05-02T09:53:32;95604.30;;;18.95;37.21
6096;BME280;25081;42.698;23.298;2023-05-02T09:55:43;95608.41;;;19.88;36.05
6096;BME280;25081;42.698;23.298;2023-05-02T09:57:53;95609.91;;;19.22;37.20
6096;BME280;25081;42.698;23.298;2023-05-02T10:00:06;95611.32;;;18.21;39.65
6096;BME280;25081;42.698;23.298;2023-05-02T10:02:16;95611.32;;;18.21;39.65
6096;BME280;25081;42.698;23.298;2023-05-02T10:04:28;95611.23;;;18.11;39.46
6096;BME280;25081;42.698;23.298;2023-05-02T10:06:37;95600.75;;;18.52;38.97
6096;BME280;25081;42.698;23.298;2023-05-02T10:08:48;95603.80;;;19.03;37.72
6096;BME280;25081;42.698;23.298;2023-05-02T10:10:59;95590.47;;;19.54;36.86
6096;BME280;25081;42.698;23.298;2023-05-02T10:13:12;95593.50;;;19.00;37.64
6096;BME280;25081;42.698;23.298;2023-05-02T10:15:23;95589.79;;;19.11;37.45
6096;BME280;25081;42.698;23.298;2023-05-02T10:17:36;95521.48;;;18.68;36.93
6096;BME280;25081;42.698;23.298;2023-05-02T10:19:55;95589.19;;;19.74;35.86
6096;BME280;25081;42.698;23.298;2023-05-02T10:21:56;95578.69;;;19.98;35.53
6096;BME280;25081;42.698;23.298;2023-05-02T10:24:06;95578.94;;;20.07;34.77
6096;BME280;25081;42.698;23.298;2023-05-02T10:26:17;95581.64;;;19.91;35.10
6096;BME280;25081;42.698;23.298;2023-05-02T10:28:28;95578.41;;;19.89;34.76
6096;BME280;25081;42.698;23.298;2023-05-02T10:30:39;95572.14;;;19.73;34.78
6096;BME280;25081;42.698;23.298;2023-05-02T10:32:50;95285.51;;;17.52;35.15
6096;BME280;25081;42.698;23.298;2023-05-02T10:35:02;95562.96;;;20.33;34.28
6096;BME280;25081;42.698;23.298;2023-05-02T10:37:13;95575.68;;;19.97;34.71
6096;BME280;25081;42.698;23.298;2023-05-02T10:39:23;95569.08;;;19.47;35.50
6096;BME280;25081;42.698;23.298;2023-05-02T10:41:33;95568.36;;;19.72;35.05
6096;BME280;25081;42.698;23.298;2023-05-02T10:43:47;95581.39;;;20.59;33.70
6096;BME280;25081;42.698;23.298;2023-05-02T10:45:57;95563.47;;;20.73;33.29
6096;BME280;25081;42.698;23.298;2023-05-02T10:48:18;95562.41;;;20.67;33.22
6096;BME280;25081;42.698;23.298;2023-05-02T10:50:42;95554.92;;;21.18;32.62
6096;BME280;25081;42.698;23.298;2023-05-02T10:52:53;95556.64;;;19.41;34.82
6096;BME280;25081;42.698;23.298;2023-05-02T10:55:19;95551.95;;;18.81;35.72
6096;BME280;25081;42.698;23.298;2023-05-02T10:57:27;95551.95;;;19.13;35.78
6096;BME280;25081;42.698;23.298;2023-05-02T10:59:38;95560.39;;;19.37;35.24
6096;BME280;25081;42.698;23.298;2023-05-02T11:01:48;95539.95;;;20.05;34.63
6096;BME280;25081;42.698;23.298;2023-05-02T11:03:59;95551.88;;;20.09;33.82
6096;BME280;25081;42.698;23.298;2023-05-02T11:06:10;95549.70;;;19.86;34.28
6096;BME280;25081;42.698;23.298;2023-05-02T11:08:33;95542.09;;;20.67;33.11
6096;BME280;25081;42.698;23.298;2023-05-02T11:10:43;95548.85;;;20.64;33.22
6096;BME280;25081;42.698;23.298;2023-05-02T11:12:54;95543.62;;;20.93;32.59
6096;BME280;25081;42.698;23.298;2023-05-02T11:15:06;95536.56;;;21.62;32.71
6096;BME280;25081;42.698;23.298;2023-05-02T11:17:18;95528.17;;;21.56;31.77
6096;BME280;25081;42.698;23.298;2023-05-02T11:19:29;95532.03;;;21.42;32.17
6096;BME280;25081;42.698;23.298;2023-05-02T11:21:39;95530.41;;;21.46;32.29
6096;BME280;25081;42.698;23.298;2023-05-02T11:23:49;95552.11;;;20.64;32.89
6096;BME280;25081;42.698;23.298;2023-05-02T11:26:00;95534.26;;;20.32;33.78
6096;BME280;25081;42.698;23.298;2023-05-02T11:28:39;95531.55;;;20.52;33.70
6096;BME280;25081;42.698;23.298;2023-05-02T11:30:49;95538.60;;;20.43;33.73
6096;BME280;25081;42.698;23.298;2023-05-02T11:33:13;95540.14;;;19.42;35.46
6096;BME280;25081;42.698;23.298;2023-05-02T11:35:26;95531.55;;;20.40;34.36
6096;BME280;25081;42.698;23.298;2023-05-02T11:37:37;95540.70;;;20.72;33.32